Sweetland, California
Current Conditions -  °F | °C
As of 4:20 AM on Thursday 29 Jan 2015 (Local Time) from KGOO Reporting Station
Clear Clear  
Wind Chill: 46°   Ceiling: Unl
Heat Index: 46°   Visibility: 10mi
Dew Point: 32°   Wind: 0mph
Humidity: 57%   Direction: NA
Pressure: 30.18"   Gusts: NA
Location:  39.3506°N, 121.137°W
Report Text: KGOO 291220Z AUTO 00000KT 10SM CLR 08/00 A3018 RMK AO1
Loading
Personal Weather Stations






























Interactive Weather Map New forecast layout! Learn more

10-Day Weather Forecast

Advertisements
Track Severe Weather on mobile